Latest Weather Observations for Ernabella/Pukatja

IDS60801

Issued at 10:02 am CDT Friday 27 March 2015 (issued every 30 minutes, with the page automatically refreshed every 10 minutes)

About weather observations | Map of weather stations | Latest weather observations for SA | Other Formats
Station Details ID: 016097 Name: PUKATJA Lat: -26.26 Lon: 132.18 Height: 703.2 m
Data from the previous 72 hours. | See also: Recent months at Ernabella/Pukatja
Date/Time
CDT
Temp
°C
App
Temp
°C
Dew
Point
Rel
Hum
%
Delta-T
°C
Wind Press
QNH
hPa
Press
MSL
hPa
Rain
since 9 am
mm
Dir
 
Spd
km/h
Gust
km/h
Spd
kts
Gust
kts
27/10:00am 17.4 11.1 -0.8 29 8.0 ENE 22 30 12 16 1027.8 - 0.0
27/09:30am 16.6 10.3 -1.0 30 7.6 ENE 22 32 12 17 1027.7 - 0.0
27/09:00am 15.6 9.3 -1.0 32 7.1 E 22 30 12 16 1027.3 1023.2 0.0
27/08:30am 14.8 9.8 -0.9 34 6.8 E 15 20 8 11 1027.3 - 0.0
27/08:00am 13.4 8.8 -1.0 37 6.1 E 13 15 7 8 1027.3 - 0.0
27/07:30am 14.1 8.4 -0.7 36 6.4 E 19 22 10 12 1027.0 - 0.0
27/07:00am 13.8 9.3 -0.6 37 6.2 E 13 17 7 9 1027.0 - 0.0
27/06:30am 14.4 9.1 -0.5 36 6.4 E 17 20 9 11 1026.7 - 0.0
27/06:00am 15.0 9.4 -0.3 35 6.6 E 19 26 10 14 1026.8 1022.7 0.0
27/05:30am 15.3 9.5 -0.4 34 6.9 E 20 26 11 14 1026.7 - 0.0
27/05:00am 15.6 10.0 0.2 35 6.8 E 19 32 10 17 1026.5 - 0.0
27/04:30am 16.1 10.4 0.7 35 6.9 E 20 26 11 14 1026.7 - 0.0
27/04:00am 16.5 10.5 1.0 35 7.1 E 22 30 12 16 1026.9 - 0.0
27/03:30am 17.0 10.7 1.8 36 7.1 E 24 32 13 17 1026.8 - 0.0
27/03:00am 17.3 12.2 3.2 39 6.7 E 19 28 10 15 1027.1 1023.0 0.0
27/02:30am 17.6 12.5 4.2 41 6.6 E 20 26 11 14 1027.0 - 0.0
27/02:00am 18.0 13.6 4.6 41 6.6 E 17 22 9 12 1027.3 - 0.0
27/01:30am 18.3 13.9 4.5 40 6.8 E 17 24 9 13 1027.4 - 0.0
27/01:00am 18.8 13.8 4.6 39 7.0 ESE 20 28 11 15 1027.4 - 0.0
27/12:30am 19.1 14.3 4.8 39 7.2 SE 19 26 10 14 1027.4 - 0.0
27/12:00am 19.5 14.8 5.2 39 7.2 ESE 19 30 10 16 1027.5 1023.4 0.0
 
Date/Time
CDT
Temp
°C
App
Temp
°C
Dew
Point
Rel
Hum
%
Delta-T
°C
Wind Press
QNH
hPa
Press
MSL
hPa
Rain
since 9 am
mm
Dir
 
Spd
km/h
Gust
km/h
Spd
kts
Gust
kts
26/11:30pm 19.9 15.2 5.2 38 7.5 SE 19 28 10 15 1027.5 - 0.0
26/11:00pm 20.2 15.4 5.4 38 7.6 SE 20 28 11 15 1027.2 - 0.0
26/10:30pm 20.8 16.2 5.6 37 7.8 SE 19 26 10 14 1027.2 - 0.0
26/10:00pm 21.1 16.9 5.5 36 8.0 SE 17 22 9 12 1027.0 - 0.0
26/09:30pm 21.4 16.6 4.9 34 8.4 SE 19 24 10 13 1026.5 - 0.0
26/09:00pm 21.9 17.1 4.9 33 8.6 ESE 19 26 10 14 1026.3 1022.1 0.0
26/08:30pm 22.4 17.6 4.5 31 9.1 SE 19 26 10 14 1026.0 - 0.0
26/08:00pm 22.9 18.1 4.4 30 9.4 SE 19 26 10 14 1025.9 - 0.0
26/07:30pm 23.3 18.4 4.3 29 9.7 ESE 19 26 10 14 1025.4 - 0.0
26/07:00pm 24.3 19.8 4.1 27 10.3 E 17 26 9 14 1025.2 - 0.0
26/06:30pm 24.7 19.9 4.5 27 10.4 ESE 19 26 10 14 1024.8 - 0.0
26/06:00pm 25.0 20.1 4.2 26 10.7 SE 19 30 10 16 1024.8 1020.6 0.0
26/05:30pm 25.1 20.2 4.3 26 10.7 ESE 19 32 10 17 1025.0 - 0.0
26/05:00pm 24.4 19.8 3.7 26 10.5 SE 17 30 9 16 1024.9 - 0.0
26/04:30pm 24.2 19.6 3.5 26 10.5 SE 17 26 9 14 1025.1 - 0.0
26/04:00pm 24.1 20.2 3.4 26 10.4 ESE 13 19 7 10 1025.4 - 0.0
26/03:30pm 23.7 19.0 3.1 26 10.3 ESE 17 32 9 17 1025.6 - 0.0
26/03:00pm 24.1 18.9 3.4 26 10.4 SE 20 28 11 15 1025.9 1021.8 0.0
26/02:30pm 23.8 19.1 3.2 26 10.3 ESE 17 30 9 16 1026.2 - 0.0
26/02:00pm 24.1 19.8 3.4 26 10.4 ESE 15 26 8 14 1026.7 - 0.0
26/01:30pm 22.4 17.1 3.0 28 9.6 SE 20 28 11 15 1027.0 - 0.0
26/01:00pm 22.7 18.0 3.3 28 9.7 E 17 26 9 14 1027.8 - 0.0
26/12:30pm 21.0 15.3 2.8 30 8.9 ESE 22 30 12 16 1028.1 - 0.0
26/12:00pm 21.4 16.7 3.1 30 9.0 ESE 17 37 9 20 1028.2 1024.1 0.0
26/11:30am 21.2 15.5 3.0 30 8.9 E 22 32 12 17 1028.3 - 0.0
26/11:00am 19.8 13.3 2.6 32 8.3 E 26 37 14 20 1028.3 - 0.0
26/10:30am 19.4 12.5 2.3 32 8.2 ESE 28 43 15 23 1028.3 - 0.0
26/10:00am 18.4 11.5 2.3 34 7.6 ESE 28 35 15 19 1028.3 - 0.0
26/09:30am 17.7 11.1 2.1 35 7.3 ESE 26 41 14 22 1027.5 - 0.0
26/09:00am 16.6 10.3 1.5 36 6.9 SE 24 33 13 18 1027.3 1023.2 0.0
26/08:30am 15.9 9.9 1.2 37 6.7 SE 22 30 12 16 1027.0 - 0.0
26/08:00am 15.5 9.5 1.3 38 6.5 ESE 22 26 12 14 1026.7 - 0.0
26/07:30am 15.9 9.5 1.2 37 6.7 SE 24 33 13 18 1026.3 - 0.0
26/07:00am 16.2 9.8 1.1 36 6.9 SE 24 33 13 18 1025.9 - 0.0
26/06:30am 16.3 10.3 1.2 36 6.9 SE 22 30 12 16 1025.5 - 0.0
26/06:00am 16.5 10.1 1.0 35 7.0 SE 24 35 13 19 1025.4 1021.3 0.0
26/05:30am 17.0 10.2 1.0 34 7.3 SE 26 35 14 19 1025.0 - 0.0
26/05:00am 17.9 11.1 1.0 32 7.8 SE 26 39 14 21 1024.8 - 0.0
26/04:30am 18.0 12.4 1.1 32 7.8 SE 20 30 11 16 1025.0 - 0.0
26/04:00am 18.3 12.3 0.9 31 8.0 SE 22 30 12 16 1024.9 - 0.0
26/03:30am 18.1 12.1 1.2 32 7.8 SE 22 32 12 17 1025.0 - 0.0
26/03:00am 18.2 12.5 0.8 31 8.0 SE 20 32 11 17 1025.2 1021.0 0.0
26/02:30am 18.5 13.0 0.6 30 8.2 SE 19 26 10 14 1025.3 - 0.0
26/02:00am 18.8 13.3 0.9 30 8.3 SE 19 33 10 18 1025.4 - 0.0
26/01:30am 19.1 14.0 0.7 29 8.5 SE 17 26 9 14 1025.2 - 0.0
26/01:00am 19.4 14.2 0.4 28 8.7 SE 17 28 9 15 1025.0 - 0.0
26/12:30am 19.8 14.7 0.8 28 8.8 SE 17 20 9 11 1025.1 - 0.0
26/12:00am 20.0 14.5 0.5 27 9.0 SE 19 28 10 15 1025.2 1021.0 0.0
 
Date/Time
CDT
Temp
°C
App
Temp
°C
Dew
Point
Rel
Hum
%
Delta-T
°C
Wind Press
QNH
hPa
Press
MSL
hPa
Rain
since 9 am
mm
Dir
 
Spd
km/h
Gust
km/h
Spd
kts
Gust
kts
25/11:30pm 20.4 15.6 0.3 26 9.3 SE 15 20 8 11 1025.3 - 0.0
25/11:00pm 20.9 17.0 1.2 27 9.3 SE 11 17 6 9 1025.3 - 0.0
25/10:30pm 20.8 16.5 1.1 27 9.3 ESE 13 17 7 9 1024.9 - 0.0
25/10:00pm 19.4 15.5 0.9 29 8.6 E 11 15 6 8 1024.6 - 0.0
25/09:30pm 20.2 16.7 1.1 28 9.0 E 9 11 5 6 1024.2 - 0.0
25/09:00pm 20.3 16.8 1.2 28 9.0 E 9 11 5 6 1023.7 1019.5 0.0
25/08:30pm 21.2 17.7 1.0 26 9.5 E 9 11 5 6 1023.4 - 0.0
25/08:00pm 22.3 18.4 1.3 25 10.1 E 11 15 6 8 1023.1 - 0.0
25/07:30pm 23.5 19.3 1.8 24 10.6 E 13 17 7 9 1022.5 - 0.0
25/07:00pm 24.2 19.3 1.8 23 11.0 ESE 17 24 9 13 1022.3 - 0.0
25/06:30pm 24.4 20.2 1.9 23 11.1 E 13 20 7 11 1022.1 - 0.0
25/06:00pm 23.7 19.6 2.5 25 10.5 SE 13 20 7 11 1022.3 1018.1 0.0
25/05:30pm 23.2 19.2 2.7 26 10.1 SSE 13 20 7 11 1022.1 - 0.0
25/05:00pm 24.0 19.8 3.9 27 10.2 SSE 15 20 8 11 1022.0 - 0.0
25/04:30pm 23.5 18.8 2.9 26 10.3 SSE 17 26 9 14 1021.9 - 0.0
25/04:00pm 23.6 18.8 2.4 25 10.5 SSE 17 26 9 14 1021.8 - 0.0
25/03:30pm 23.7 19.0 3.1 26 10.3 SE 17 26 9 14 1022.0 - 0.0
25/03:00pm 24.1 19.8 3.4 26 10.4 SE 15 22 8 12 1022.2 1018.0 0.0
25/02:30pm 24.2 20.3 3.5 26 10.5 SSE 13 26 7 14 1022.5 - 0.0
25/02:00pm 22.6 19.0 2.7 27 9.8 S 11 20 6 11 1023.2 - 0.0
25/01:30pm 22.1 18.1 0.6 24 10.1 E 11 19 6 10 1023.4 - 0.0
25/01:00pm 20.8 16.9 1.1 27 9.3 ESE 11 17 6 9 1023.8 - 0.0
25/12:30pm 19.6 15.9 0.1 27 8.9 E 9 15 5 8 1024.2 - 0.0
25/12:00pm 19.1 15.0 -0.3 27 8.7 ENE 11 17 6 9 1024.3 1020.2 0.0
25/11:30am 18.7 15.0 -0.2 28 8.5 ENE 9 13 5 7 1024.7 - 0.0
25/11:00am 17.7 13.2 -0.1 30 8.0 ENE 13 19 7 10 1024.4 - 0.0
25/10:30am 17.2 12.8 0.4 32 7.6 ENE 13 17 7 9 1024.6 - 0.0
25/10:00am 16.7 12.6 -0.5 31 7.6 ENE 11 15 6 8 1024.4 - 0.0
25/09:30am 16.5 12.1 0.2 33 7.3 ENE 13 17 7 9 1024.0 - 0.0
25/09:00am 16.3 11.4 -0.4 32 7.3 ENE 15 20 8 11 1023.3 1019.1 0.0
25/08:30am 16.3 12.2 -0.4 32 7.4 ENE 11 17 6 9 1022.9 - 0.0
25/08:00am 16.2 12.4 -0.5 32 7.3 ENE 9 13 5 7 1022.8 - 0.0
25/07:30am 15.9 12.2 -0.3 33 7.1 ENE 9 11 5 6 1022.5 - 0.0
25/07:00am 15.7 12.4 -0.1 34 7.0 ENE 7 9 4 5 1022.3 - 0.0
25/06:30am 15.3 11.5 -0.4 34 6.9 ENE 9 9 5 5 1022.1 - 0.0
25/06:00am 14.4 10.6 -0.5 36 6.4 NE 9 11 5 6 1021.7 1017.5 0.0
25/05:30am 14.9 10.7 -0.8 34 6.8 E 11 15 6 8 1021.4 - 0.0
25/05:00am 15.4 12.0 -0.8 33 7.0 E 7 9 4 5 1021.6 - 0.0
25/04:30am 15.6 12.2 -0.6 33 7.1 E 7 9 4 5 1021.3 - 0.0
25/04:00am 15.2 11.4 -0.9 33 7.0 NE 9 13 5 7 1021.4 - 0.0
25/03:30am 16.6 12.4 -0.6 31 7.6 E 11 13 6 7 1021.9 - 0.0
25/03:00am 17.4 12.9 -0.3 30 7.9 ESE 13 17 7 9 1022.1 1017.9 0.0
25/02:30am 17.3 12.4 -0.4 30 7.9 ESE 15 20 8 11 1022.2 - 0.0
25/02:00am 17.3 12.4 -0.4 30 7.9 ESE 15 19 8 10 1022.6 - 0.0
25/01:30am 18.2 13.0 -0.1 29 8.3 SE 17 26 9 14 1022.8 - 0.0
25/01:00am 18.7 13.5 -0.2 28 8.5 SE 17 24 9 13 1022.8 - 0.0
25/12:30am 19.0 14.2 0.1 28 8.6 ESE 15 22 8 12 1022.9 - 0.0
25/12:00am 19.3 14.2 0.8 29 8.5 ESE 17 26 9 14 1022.7 1018.5 0.0
 
Date/Time
CDT
Temp
°C
App
Temp
°C
Dew
Point
Rel
Hum
%
Delta-T
°C
Wind Press
QNH
hPa
Press
MSL
hPa
Rain
since 9 am
mm
Dir
 
Spd
km/h
Gust
km/h
Spd
kts
Gust
kts
24/11:30pm 19.5 14.1 1.0 29 8.6 ESE 19 24 10 13 1022.9 - 0.0
24/11:00pm 19.8 15.1 3.1 33 8.1 SE 17 24 9 13 1022.9 - 0.0
24/10:30pm 20.6 15.6 3.8 33 8.3 SE 19 30 10 16 1022.5 - 0.0
24/10:00pm 21.2 16.3 3.9 32 8.6 SE 19 26 10 14 1022.3 - 0.0
24/09:30pm 21.6 17.1 4.2 32 8.8 SSE 17 22 9 12 1022.0 - 0.0
24/09:00pm 21.9 17.7 4.0 31 9.0 SSE 15 20 8 11 1021.9 1017.7 0.0
24/08:30pm 22.3 18.2 4.4 31 9.1 SSE 15 20 8 11 1021.3 - 0.0
24/08:00pm 22.7 18.2 4.2 30 9.4 SE 17 22 9 12 1020.9 - 0.0
24/07:30pm 23.6 19.6 5.0 30 9.6 SSE 15 20 8 11 1020.6 - 0.0
24/07:00pm 24.1 20.1 5.0 29 9.9 S 15 17 8 9 1020.5 - 0.0
24/06:30pm 24.2 21.0 5.1 29 9.9 SE 11 20 6 11 1020.3 - 0.0
24/06:00pm 24.9 21.0 5.2 28 10.3 SE 15 24 8 13 1020.2 1015.9 0.0
24/05:30pm 24.3 20.2 4.6 28 10.2 SE 15 24 8 13 1019.9 - 0.0
24/05:00pm 24.8 20.8 5.1 28 10.3 ESE 15 22 8 12 1020.1 - 0.0
24/04:30pm 24.3 21.1 5.1 29 10.0 ESE 11 19 6 10 1020.2 - 0.0
24/04:00pm 23.8 20.6 5.2 30 9.7 S 11 20 6 11 1020.2 - 0.0
24/03:30pm 23.0 19.4 5.0 31 9.3 SSE 13 24 7 13 1020.7 - 0.0
24/03:00pm 22.5 18.9 5.0 32 9.0 SE 13 22 7 12 1021.0 1016.8 0.0
24/02:30pm 22.6 19.0 5.1 32 9.0 ESE 13 28 7 15 1021.3 - 0.0
24/02:00pm 21.8 18.3 5.3 34 8.5 ESE 13 24 7 13 1022.1 - 0.0
24/01:30pm 20.2 16.2 4.7 36 7.8 ESE 15 24 8 13 1022.5 - 0.0
24/01:00pm 20.0 15.6 4.9 37 7.6 SSE 17 26 9 14 1022.9 - 0.0
24/12:30pm 18.9 14.5 4.7 39 7.1 ESE 17 28 9 15 1023.3 - 0.0
24/12:00pm 18.8 14.5 5.3 41 6.8 E 17 26 9 14 1023.8 1019.6 0.0
24/11:30am 17.5 13.2 5.1 44 6.2 SE 17 28 9 15 1024.0 - 0.0
24/11:00am 17.3 12.4 5.3 45 6.0 ESE 20 32 11 17 1024.0 - 0.0
24/10:30am 16.4 11.5 5.1 47 5.6 SE 20 26 11 14 1024.2 - 0.0

Other Formats:

Comma delimited format used in spreadsheet applications
http://www.bom.gov.au/fwo/IDS60801/IDS60801.94474.axf

JavaScript Object Notation format (JSON) in row-major order
http://www.bom.gov.au/fwo/IDS60801/IDS60801.94474.json